sensor_id;sensor_type;location;lat;lon;timestamp;temperature;humidity
12233;DHT22;6179;51.748;8.728;2023-03-14T00:02:26;11.70;93.60
12233;DHT22;6179;51.748;8.728;2023-03-14T00:08:27;11.60;93.80
12233;DHT22;6179;51.748;8.728;2023-03-14T00:14:28;11.50;94.00
12233;DHT22;6179;51.748;8.728;2023-03-14T00:20:29;11.60;94.20
12233;DHT22;6179;51.748;8.728;2023-03-14T00:26:30;11.70;93.90
12233;DHT22;6179;51.748;8.728;2023-03-14T00:32:31;11.70;93.70
12233;DHT22;6179;51.748;8.728;2023-03-14T00:38:32;11.60;94.00
12233;DHT22;6179;51.748;8.728;2023-03-14T00:44:33;11.60;93.80
12233;DHT22;6179;51.748;8.728;2023-03-14T00:50:34;11.60;93.90
12233;DHT22;6179;51.748;8.728;2023-03-14T00:56:35;11.40;94.70
12233;DHT22;6179;51.748;8.728;2023-03-14T01:02:36;11.30;95.20
12233;DHT22;6179;51.748;8.728;2023-03-14T01:08:36;11.60;94.40
12233;DHT22;6179;51.748;8.728;2023-03-14T01:14:37;11.60;94.40
12233;DHT22;6179;51.748;8.728;2023-03-14T01:20:38;11.60;94.20
12233;DHT22;6179;51.748;8.728;2023-03-14T01:26:39;11.60;94.20
12233;DHT22;6179;51.748;8.728;2023-03-14T01:32:40;11.50;94.10
12233;DHT22;6179;51.748;8.728;2023-03-14T01:38:41;11.50;94.10
12233;DHT22;6179;51.748;8.728;2023-03-14T01:44:59;11.40;94.20
12233;DHT22;6179;51.748;8.728;2023-03-14T01:51:02;11.50;94.10
12233;DHT22;6179;51.748;8.728;2023-03-14T02:03:16;11.50;94.10
12233;DHT22;6179;51.748;8.728;2023-03-14T02:09:21;11.60;93.10
12233;DHT22;6179;51.748;8.728;2023-03-14T02:15:23;11.70;92.90
12233;DHT22;6179;51.748;8.728;2023-03-14T02:28:12;11.70;92.50
12233;DHT22;6179;51.748;8.728;2023-03-14T02:34:14;11.60;92.80
12233;DHT22;6179;51.748;8.728;2023-03-14T02:40:15;11.70;92.80
12233;DHT22;6179;51.748;8.728;2023-03-14T02:46:18;11.60;93.40
12233;DHT22;6179;51.748;8.728;2023-03-14T02:52:21;11.50;96.90
12233;DHT22;6179;51.748;8.728;2023-03-14T02:58:22;10.90;98.30
12233;DHT22;6179;51.748;8.728;2023-03-14T03:04:22;9.60;98.30
12233;DHT22;6179;51.748;8.728;2023-03-14T03:10:23;9.40;98.30
12233;DHT22;6179;51.748;8.728;2023-03-14T03:16:24;9.30;98.30
12233;DHT22;6179;51.748;8.728;2023-03-14T03:22:25;8.80;98.30
12233;DHT22;6179;51.748;8.728;2023-03-14T03:28:25;8.80;98.30
12233;DHT22;6179;51.748;8.728;2023-03-14T03:34:27;8.70;98.30
12233;DHT22;6179;51.748;8.728;2023-03-14T03:40:28;8.30;98.30
12233;DHT22;6179;51.748;8.728;2023-03-14T03:46:29;8.40;98.30
12233;DHT22;6179;51.748;8.728;2023-03-14T03:52:30;8.40;98.30
12233;DHT22;6179;51.748;8.728;2023-03-14T03:58:30;8.40;98.30
12233;DHT22;6179;51.748;8.728;2023-03-14T04:04:31;8.70;98.30
12233;DHT22;6179;51.748;8.728;2023-03-14T04:10:35;8.50;98.30
12233;DHT22;6179;51.748;8.728;2023-03-14T04:16:37;8.60;98.30
12233;DHT22;6179;51.748;8.728;2023-03-14T04:22:38;8.50;98.30
12233;DHT22;6179;51.748;8.728;2023-03-14T04:28:39;8.60;98.30
12233;DHT22;6179;51.748;8.728;2023-03-14T04:34:41;8.70;98.30
12233;DHT22;6179;51.748;8.728;2023-03-14T04:40:42;8.90;98.30
12233;DHT22;6179;51.748;8.728;2023-03-14T04:46:44;8.80;98.30
12233;DHT22;6179;51.748;8.728;2023-03-14T04:52:45;9.00;98.30
12233;DHT22;6179;51.748;8.728;2023-03-14T04:58:45;9.00;98.30
12233;DHT22;6179;51.748;8.728;2023-03-14T05:04:46;9.00;98.30
12233;DHT22;6179;51.748;8.728;2023-03-14T05:10:54;9.10;98.30
12233;DHT22;6179;51.748;8.728;2023-03-14T05:16:56;9.00;98.30
12233;DHT22;6179;51.748;8.728;2023-03-14T05:22:56;9.20;98.30
12233;DHT22;6179;51.748;8.728;2023-03-14T05:28:57;8.90;98.30
12233;DHT22;6179;51.748;8.728;2023-03-14T05:34:58;8.80;98.30
12233;DHT22;6179;51.748;8.728;2023-03-14T05:40:59;8.80;98.30
12233;DHT22;6179;51.748;8.728;2023-03-14T05:47:00;8.90;98.30
12233;DHT22;6179;51.748;8.728;2023-03-14T05:53:01;8.90;98.30
12233;DHT22;6179;51.748;8.728;2023-03-14T05:59:02;9.00;98.30
12233;DHT22;6179;51.748;8.728;2023-03-14T06:05:04;9.30;98.30
12233;DHT22;6179;51.748;8.728;2023-03-14T06:11:05;9.30;98.30
12233;DHT22;6179;51.748;8.728;2023-03-14T06:17:06;9.30;98.30
12233;DHT22;6179;51.748;8.728;2023-03-14T06:23:08;9.60;98.30
12233;DHT22;6179;51.748;8.728;2023-03-14T06:29:09;9.70;98.30
12233;DHT22;6179;51.748;8.728;2023-03-14T06:35:10;9.80;98.30
12233;DHT22;6179;51.748;8.728;2023-03-14T06:41:11;9.90;98.30
12233;DHT22;6179;51.748;8.728;2023-03-14T06:47:12;9.60;98.30
12233;DHT22;6179;51.748;8.728;2023-03-14T06:53:13;9.70;98.30
12233;DHT22;6179;51.748;8.728;2023-03-14T06:59:14;9.50;98.30
12233;DHT22;6179;51.748;8.728;2023-03-14T07:05:14;9.50;98.30
12233;DHT22;6179;51.748;8.728;2023-03-14T07:11:15;9.50;98.30
12233;DHT22;6179;51.748;8.728;2023-03-14T07:17:16;9.70;98.30
12233;DHT22;6179;51.748;8.728;2023-03-14T07:23:17;9.50;98.30
12233;DHT22;6179;51.748;8.728;2023-03-14T07:29:18;10.20;98.30
12233;DHT22;6179;51.748;8.728;2023-03-14T07:35:18;10.40;98.30
12233;DHT22;6179;51.748;8.728;2023-03-14T07:41:19;10.30;98.30
12233;DHT22;6179;51.748;8.728;2023-03-14T07:47:21;10.00;98.30
12233;DHT22;6179;51.748;8.728;2023-03-14T07:53:22;10.00;98.30
12233;DHT22;6179;51.748;8.728;2023-03-14T07:59:24;9.80;98.30
12233;DHT22;6179;51.748;8.728;2023-03-14T08:05:24;10.10;98.30
12233;DHT22;6179;51.748;8.728;2023-03-14T08:11:25;10.40;98.30
12233;DHT22;6179;51.748;8.728;2023-03-14T08:17:27;10.20;98.30
12233;DHT22;6179;51.748;8.728;2023-03-14T08:23:27;10.20;98.30
12233;DHT22;6179;51.748;8.728;2023-03-14T08:29:28;10.20;98.30
12233;DHT22;6179;51.748;8.728;2023-03-14T08:35:29;10.30;98.30
12233;DHT22;6179;51.748;8.728;2023-03-14T08:41:30;10.50;98.30
12233;DHT22;6179;51.748;8.728;2023-03-14T08:47:30;10.90;98.30
12233;DHT22;6179;51.748;8.728;2023-03-14T08:53:31;10.90;98.30
12233;DHT22;6179;51.748;8.728;2023-03-14T08:59:32;10.80;98.30
12233;DHT22;6179;51.748;8.728;2023-03-14T09:05:34;11.00;98.30
12233;DHT22;6179;51.748;8.728;2023-03-14T09:11:34;11.00;98.30
12233;DHT22;6179;51.748;8.728;2023-03-14T09:17:35;11.30;98.30
12233;DHT22;6179;51.748;8.728;2023-03-14T09:23:36;11.40;98.30
12233;DHT22;6179;51.748;8.728;2023-03-14T09:29:37;11.30;98.30
12233;DHT22;6179;51.748;8.728;2023-03-14T09:35:37;11.40;98.30
12233;DHT22;6179;51.748;8.728;2023-03-14T09:41:41;11.40;98.30
12233;DHT22;6179;51.748;8.728;2023-03-14T09:47:45;11.50;98.30
12233;DHT22;6179;51.748;8.728;2023-03-14T09:53:49;11.80;98.30
12233;DHT22;6179;51.748;8.728;2023-03-14T09:59:53;11.80;98.30
12233;DHT22;6179;51.748;8.728;2023-03-14T10:05:57;11.60;98.30
12233;DHT22;6179;51.748;8.728;2023-03-14T10:11:59;11.70;98.30
12233;DHT22;6179;51.748;8.728;2023-03-14T10:18:02;11.40;98.30
12233;DHT22;6179;51.748;8.728;2023-03-14T10:30:44;11.00;98.30
12233;DHT22;6179;51.748;8.728;2023-03-14T10:36:46;11.30;98.30
12233;DHT22;6179;51.748;8.728;2023-03-14T10:42:52;11.20;98.30
12233;DHT22;6179;51.748;8.728;2023-03-14T10:48:53;11.20;98.30
12233;DHT22;6179;51.748;8.728;2023-03-14T10:55:00;10.70;98.30
12233;DHT22;6179;51.748;8.728;2023-03-14T11:07:43;10.60;98.30
12233;DHT22;6179;51.748;8.728;2023-03-14T11:13:54;10.20;98.30
12233;DHT22;6179;51.748;8.728;2023-03-14T11:26:55;8.40;98.30
12233;DHT22;6179;51.748;8.728;2023-03-14T11:33:16;8.20;98.30
12233;DHT22;6179;51.748;8.728;2023-03-14T11:39:39;8.10;98.30
12233;DHT22;6179;51.748;8.728;2023-03-14T11:45:42;8.50;98.30
12233;DHT22;6179;51.748;8.728;2023-03-14T11:51:47;7.90;98.30
12233;DHT22;6179;51.748;8.728;2023-03-14T11:58:00;7.80;98.30
12233;DHT22;6179;51.748;8.728;2023-03-14T12:04:26;7.20;98.30
12233;DHT22;6179;51.748;8.728;2023-03-14T12:10:58;6.90;98.30
12233;DHT22;6179;51.748;8.728;2023-03-14T12:17:22;6.50;98.30
12233;DHT22;6179;51.748;8.728;2023-03-14T12:23:27;5.80;98.30
12233;DHT22;6179;51.748;8.728;2023-03-14T12:30:00;5.50;98.30
12233;DHT22;6179;51.748;8.728;2023-03-14T12:36:03;5.40;98.30
12233;DHT22;6179;51.748;8.728;2023-03-14T12:48:41;5.20;98.30
12233;DHT22;6179;51.748;8.728;2023-03-14T13:00:55;5.40;98.30
12233;DHT22;6179;51.748;8.728;2023-03-14T13:07:01;5.50;98.30
12233;DHT22;6179;51.748;8.728;2023-03-14T13:13:20;5.50;98.30
12233;DHT22;6179;51.748;8.728;2023-03-14T13:19:27;5.80;98.30
12233;DHT22;6179;51.748;8.728;2023-03-14T13:25:33;5.70;98.30
12233;DHT22;6179;51.748;8.728;2023-03-14T13:31:35;6.10;98.30
12233;DHT22;6179;51.748;8.728;2023-03-14T13:37:39;6.70;98.30
12233;DHT22;6179;51.748;8.728;2023-03-14T13:43:43;6.40;98.30
12233;DHT22;6179;51.748;8.728;2023-03-14T13:49:45;6.60;98.30
12233;DHT22;6179;51.748;8.728;2023-03-14T13:55:47;6.70;98.30
12233;DHT22;6179;51.748;8.728;2023-03-14T14:01:48;6.50;98.30
12233;DHT22;6179;51.748;8.728;2023-03-14T14:07:50;5.30;98.30
12233;DHT22;6179;51.748;8.728;2023-03-14T14:13:52;5.20;98.30
12233;DHT22;6179;51.748;8.728;2023-03-14T14:19:54;5.00;98.30
12233;DHT22;6179;51.748;8.728;2023-03-14T14:25:58;5.30;98.30
12233;DHT22;6179;51.748;8.728;2023-03-14T14:32:17;5.30;98.30
12233;DHT22;6179;51.748;8.728;2023-03-14T14:38:18;5.50;98.30
12233;DHT22;6179;51.748;8.728;2023-03-14T14:44:33;5.60;98.30
12233;DHT22;6179;51.748;8.728;2023-03-14T14:50:48;6.10;98.30
12233;DHT22;6179;51.748;8.728;2023-03-14T14:57:02;6.20;98.30
12233;DHT22;6179;51.748;8.728;2023-03-14T15:03:05;6.50;98.30
12233;DHT22;6179;51.748;8.728;2023-03-14T15:09:08;6.70;96.50
12233;DHT22;6179;51.748;8.728;2023-03-14T15:15:11;6.40;94.00
12233;DHT22;6179;51.748;8.728;2023-03-14T15:21:12;6.10;93.20
12233;DHT22;6179;51.748;8.728;2023-03-14T15:27:14;6.10;91.20
12233;DHT22;6179;51.748;8.728;2023-03-14T15:33:17;6.30;90.60
12233;DHT22;6179;51.748;8.728;2023-03-14T15:39:18;6.30;88.90
12233;DHT22;6179;51.748;8.728;2023-03-14T15:45:19;6.60;88.80
12233;DHT22;6179;51.748;8.728;2023-03-14T15:51:20;6.80;87.70
12233;DHT22;6179;51.748;8.728;2023-03-14T15:57:20;6.60;86.00
12233;DHT22;6179;51.748;8.728;2023-03-14T16:03:21;6.50;82.80
12233;DHT22;6179;51.748;8.728;2023-03-14T16:09:22;6.40;82.10
12233;DHT22;6179;51.748;8.728;2023-03-14T16:15:24;6.10;80.40
12233;DHT22;6179;51.748;8.728;2023-03-14T16:21:28;6.20;79.80
12233;DHT22;6179;51.748;8.728;2023-03-14T16:27:29;6.40;78.40
12233;DHT22;6179;51.748;8.728;2023-03-14T16:33:31;6.10;80.00
12233;DHT22;6179;51.748;8.728;2023-03-14T16:39:33;6.00;80.80
12233;DHT22;6179;51.748;8.728;2023-03-14T16:45:36;6.50;79.50
12233;DHT22;6179;51.748;8.728;2023-03-14T16:51:37;6.20;80.60
12233;DHT22;6179;51.748;8.728;2023-03-14T16:57:38;6.00;79.40
12233;DHT22;6179;51.748;8.728;2023-03-14T17:03:44;6.60;79.30
12233;DHT22;6179;51.748;8.728;2023-03-14T17:09:47;6.10;79.40
12233;DHT22;6179;51.748;8.728;2023-03-14T17:15:52;6.00;81.80
12233;DHT22;6179;51.748;8.728;2023-03-14T17:21:56;5.80;85.60
12233;DHT22;6179;51.748;8.728;2023-03-14T17:27:57;6.00;85.80
12233;DHT22;6179;51.748;8.728;2023-03-14T17:33:57;6.20;84.10
12233;DHT22;6179;51.748;8.728;2023-03-14T17:39:58;6.00;81.80
12233;DHT22;6179;51.748;8.728;2023-03-14T17:46:03;6.00;82.90
12233;DHT22;6179;51.748;8.728;2023-03-14T17:52:08;6.10;80.40
12233;DHT22;6179;51.748;8.728;2023-03-14T17:58:12;5.70;83.50
12233;DHT22;6179;51.748;8.728;2023-03-14T18:04:12;5.60;83.70
12233;DHT22;6179;51.748;8.728;2023-03-14T18:10:14;5.70;82.90
12233;DHT22;6179;51.748;8.728;2023-03-14T18:16:16;5.40;85.10
12233;DHT22;6179;51.748;8.728;2023-03-14T18:22:17;5.80;83.80
12233;DHT22;6179;51.748;8.728;2023-03-14T18:28:18;5.70;83.50
12233;DHT22;6179;51.748;8.728;2023-03-14T18:34:21;5.80;81.50
12233;DHT22;6179;51.748;8.728;2023-03-14T18:40:22;5.60;83.40
12233;DHT22;6179;51.748;8.728;2023-03-14T18:46:22;5.60;84.00
12233;DHT22;6179;51.748;8.728;2023-03-14T18:52:23;5.20;87.00
12233;DHT22;6179;51.748;8.728;2023-03-14T18:58:24;4.90;84.80
12233;DHT22;6179;51.748;8.728;2023-03-14T19:04:27;4.90;83.00
12233;DHT22;6179;51.748;8.728;2023-03-14T19:10:29;4.90;82.10
12233;DHT22;6179;51.748;8.728;2023-03-14T19:16:31;4.60;80.70
12233;DHT22;6179;51.748;8.728;2023-03-14T19:22:32;4.50;81.50
12233;DHT22;6179;51.748;8.728;2023-03-14T19:28:33;4.50;80.50
12233;DHT22;6179;51.748;8.728;2023-03-14T19:34:34;4.40;82.50
12233;DHT22;6179;51.748;8.728;2023-03-14T19:40:36;4.40;84.20
12233;DHT22;6179;51.748;8.728;2023-03-14T19:46:37;4.10;84.50
12233;DHT22;6179;51.748;8.728;2023-03-14T19:52:38;4.10;84.80
12233;DHT22;6179;51.748;8.728;2023-03-14T19:58:43;4.30;84.50
12233;DHT22;6179;51.748;8.728;2023-03-14T20:04:44;4.20;83.60
12233;DHT22;6179;51.748;8.728;2023-03-14T20:10:45;4.30;84.50
12233;DHT22;6179;51.748;8.728;2023-03-14T20:16:46;4.10;84.50
12233;DHT22;6179;51.748;8.728;2023-03-14T20:22:48;4.10;84.60
12233;DHT22;6179;51.748;8.728;2023-03-14T20:28:49;4.30;85.30
12233;DHT22;6179;51.748;8.728;2023-03-14T20:34:50;4.20;85.40
12233;DHT22;6179;51.748;8.728;2023-03-14T20:40:54;3.90;88.30
12233;DHT22;6179;51.748;8.728;2023-03-14T20:46:56;3.90;88.80
12233;DHT22;6179;51.748;8.728;2023-03-14T20:52:59;4.00;88.40
12233;DHT22;6179;51.748;8.728;2023-03-14T20:59:01;3.80;88.00
12233;DHT22;6179;51.748;8.728;2023-03-14T21:05:03;3.90;88.90
12233;DHT22;6179;51.748;8.728;2023-03-14T21:11:05;4.20;87.60
12233;DHT22;6179;51.748;8.728;2023-03-14T21:17:06;3.80;88.40
12233;DHT22;6179;51.748;8.728;2023-03-14T21:23:07;4.00;88.20
12233;DHT22;6179;51.748;8.728;2023-03-14T21:29:08;3.60;88.70
12233;DHT22;6179;51.748;8.728;2023-03-14T21:35:09;3.60;89.50
12233;DHT22;6179;51.748;8.728;2023-03-14T21:41:11;3.70;89.80
12233;DHT22;6179;51.748;8.728;2023-03-14T21:47:14;3.70;89.80
12233;DHT22;6179;51.748;8.728;2023-03-14T21:53:16;3.70;89.80
12233;DHT22;6179;51.748;8.728;2023-03-14T21:59:16;3.60;90.40
12233;DHT22;6179;51.748;8.728;2023-03-14T22:05:18;3.80;89.80
12233;DHT22;6179;51.748;8.728;2023-03-14T22:11:22;3.60;90.50
12233;DHT22;6179;51.748;8.728;2023-03-14T22:17:23;3.90;89.60
12233;DHT22;6179;51.748;8.728;2023-03-14T22:23:24;3.50;90.10
12233;DHT22;6179;51.748;8.728;2023-03-14T22:29:25;3.60;89.60
12233;DHT22;6179;51.748;8.728;2023-03-14T22:35:26;3.20;91.70
12233;DHT22;6179;51.748;8.728;2023-03-14T22:41:27;3.20;92.10
12233;DHT22;6179;51.748;8.728;2023-03-14T22:47:28;3.10;92.20
12233;DHT22;6179;51.748;8.728;2023-03-14T22:53:28;3.00;91.90
12233;DHT22;6179;51.748;8.728;2023-03-14T22:59:29;3.00;92.80
12233;DHT22;6179;51.748;8.728;2023-03-14T23:05:30;2.70;93.70
12233;DHT22;6179;51.748;8.728;2023-03-14T23:11:31;2.30;95.50
12233;DHT22;6179;51.748;8.728;2023-03-14T23:17:35;2.20;96.00
12233;DHT22;6179;51.748;8.728;2023-03-14T23:23:36;2.40;95.60
12233;DHT22;6179;51.748;8.728;2023-03-14T23:29:37;2.50;94.80
12233;DHT22;6179;51.748;8.728;2023-03-14T23:35:38;2.40;94.60
12233;DHT22;6179;51.748;8.728;2023-03-14T23:41:39;2.20;95.70
12233;DHT22;6179;51.748;8.728;2023-03-14T23:47:40;2.20;95.60
12233;DHT22;6179;51.748;8.728;2023-03-14T23:53:42;2.10;95.50
12233;DHT22;6179;51.748;8.728;2023-03-14T23:59:43;2.10;95.20
